Terminal Aerodrome Forecast
Issued by NWS Quad Cities IA IL

Home | Current Version | Previous Version | Graphics & Text | Print | Product List | Glossary On
Versions: 1 2 3 4 5 6 7 8 9 10 11 12 13 14 15 16 17 18 19 20 21 22 23 24 25 26 27 28 29 30 31 32 33 34 35 36 37 38 39 40 41
000
FTUS43 KDVN 280145 AAA
TAFMLI
TAF AMD
KMLI 280145Z 2802/2824 03005KT P6SM OVC014
      TEMPO 2802/2804 SCT014 OVC025
     FM280400 02004KT 4SM BR OVC009
     FM280900 03005KT 2SM BR OVC005
     FM281500 05006KT 6SM BR OVC012=

USA.gov is the U.S. government's official web portal to all federal, state and local government web resources and services.